Latest Weather Observations for Wynyard

IDT60801

Issued at 10:35 am EDT Saturday 29 November 2014 (issued every 30 minutes, with the page automatically refreshed every 10 minutes)

About weather observations | Map of weather stations | Latest weather observations for TAS | Other Formats
Station Details ID: 091107 Name: WYNYARD AIRPORT Lat: -41.00 Lon: 145.73 Height: 12.0 m
Data from the previous 72 hours. | See also: Recent months at Wynyard
Date/Time
EDT
Temp
°C
App
Temp
°C
Dew
Point
Rel
Hum
%
Delta-T
°C
Wind Press
QNH
hPa
Press
MSL
hPa
Rain
since 9 am
mm
Dir
 
Spd
km/h
Gust
km/h
Spd
kts
Gust
kts
29/10:30am 16.0 12.6 10.7 71 2.8 ENE 19 24 10 13 1018.3 1018.3 0.0
29/10:00am 16.6 13.9 11.7 73 2.7 ENE 17 26 9 14 1018.7 1018.7 0.0
29/09:30am 16.2 13.4 11.4 73 2.6 E 17 22 9 12 1019.0 1019.0 0.0
29/09:00am 16.2 13.7 11.2 72 2.7 E 15 20 8 11 1019.1 1019.1 0.0
29/08:30am 15.6 13.1 11.2 75 2.4 E 15 22 8 12 1019.3 1019.3 0.0
29/08:00am 15.1 13.0 11.3 78 2.0 E 13 20 7 11 1019.2 1019.2 0.0
29/07:30am 14.0 11.8 10.8 81 1.7 SE 13 17 7 9 1019.1 1019.1 0.0
29/07:00am 12.8 11.0 10.9 88 1.0 SE 11 17 6 9 1019.0 1019.0 0.0
29/06:30am 11.9 9.6 10.6 92 0.7 SSE 13 17 7 9 1019.0 1019.0 0.0
29/06:00am 11.1 9.1 10.3 95 0.4 SSE 11 15 6 8 1018.7 1018.7 0.0
29/05:30am 10.4 7.9 9.8 96 0.3 SSE 13 17 7 9 1018.5 1018.5 0.0
29/05:00am 10.8 8.4 10.0 95 0.4 SSE 13 17 7 9 1018.6 1018.6 0.0
29/04:30am 11.7 9.4 10.6 93 0.6 SSE 13 17 7 9 1018.5 1018.5 0.0
29/04:00am 11.4 9.3 11.1 98 0.2 SSE 13 17 7 9 1018.6 1018.6 0.0
29/03:30am 10.8 8.9 10.6 99 0.1 SSE 11 13 6 7 1019.0 1019.0 0.0
29/03:00am 11.0 9.2 10.7 98 0.2 SSE 11 15 6 8 1019.0 1019.0 0.0
29/02:30am 11.8 10.2 11.6 99 0.1 SSE 11 17 6 9 1019.0 1019.0 0.0
29/02:26am 11.6 10.0 11.4 99 0.1 SSE 11 13 6 7 1019.1 1019.1 0.0
29/02:00am 11.0 9.6 10.8 99 0.1 SSE 9 13 5 7 1019.2 1019.2 0.0
29/01:30am 11.4 10.5 11.2 99 0.1 S 7 9 4 5 1019.3 1019.3 0.0
29/01:00am 11.7 10.1 11.5 99 0.1 SSE 11 13 6 7 1019.7 1019.7 0.0
29/12:30am 10.5 8.9 10.3 99 0.1 SSE 9 9 5 5 1019.7 1019.7 0.0
29/12:22am 10.4 8.8 10.2 99 0.1 SSE 9 11 5 6 1019.7 1019.7 0.0
29/12:00am 9.1 7.4 8.3 95 0.4 SSE 7 9 4 5 1019.7 1019.7 0.0
 
Date/Time
EDT
Temp
°C
App
Temp
°C
Dew
Point
Rel
Hum
%
Delta-T
°C
Wind Press
QNH
hPa
Press
MSL
hPa
Rain
since 9 am
mm
Dir
 
Spd
km/h
Gust
km/h
Spd
kts
Gust
kts
28/11:30pm 12.0 11.2 11.1 94 0.5 ENE 6 9 3 5 1019.6 1019.6 0.0
28/11:00pm 11.2 10.0 9.6 90 0.8 ENE 6 9 3 5 1019.6 1019.6 0.0
28/10:30pm 11.5 10.2 9.2 86 1.2 S 6 11 3 6 1019.5 1019.5 0.0
28/10:00pm 12.5 11.1 9.7 83 1.4 SSW 7 11 4 6 1019.5 1019.5 0.0
28/09:30pm 12.8 11.7 10.7 87 1.1 S 7 9 4 5 1019.5 1019.5 0.0
28/09:00pm 13.0 11.7 11.1 88 1.0 SSE 9 11 5 6 1019.5 1019.5 0.0
28/08:30pm 13.4 12.4 10.9 85 1.3 E 7 11 4 6 1019.5 1019.5 0.0
28/08:00pm 14.7 13.6 10.7 77 2.1 ENE 7 11 4 6 1019.5 1019.5 0.0
28/07:30pm 16.0 14.1 9.2 64 3.5 NNE 9 13 5 7 1019.5 1019.5 0.0
28/07:00pm 17.0 15.5 9.2 60 4.0 NNE 7 13 4 7 1019.4 1019.4 0.0
28/06:30pm 17.1 14.8 9.0 59 4.2 NNE 11 13 6 7 1019.4 1019.4 0.0
28/06:00pm 17.4 15.3 9.6 60 4.1 NNW 11 15 6 8 1019.4 1019.4 0.0
28/05:30pm 17.8 15.7 9.9 60 4.2 NW 11 19 6 10 1019.5 1019.5 0.0
28/05:00pm 17.4 14.7 10.5 64 3.7 NNE 15 19 8 10 1019.6 1019.6 0.0
28/04:30pm 17.7 16.0 12.4 71 2.9 NNE 13 19 7 10 1019.6 1019.6 0.0
28/04:00pm 17.0 14.2 11.5 70 3.0 NNE 17 19 9 10 1019.9 1019.9 0.0
28/03:30pm 17.5 14.8 11.8 69 3.1 NE 17 20 9 11 1020.0 1020.0 0.0
28/03:00pm 16.8 14.9 11.7 72 2.8 NE 13 20 7 11 1020.4 1020.4 0.0
28/02:30pm 16.3 13.4 11.0 71 2.8 NE 17 22 9 12 1020.6 1020.6 0.0
28/02:00pm 16.6 13.7 10.9 69 3.0 NE 17 22 9 12 1020.9 1020.9 0.0
28/01:30pm 16.6 14.2 11.3 71 2.9 NNE 15 22 8 12 1021.3 1021.3 0.0
28/01:00pm 17.2 14.8 12.7 75 2.5 NNE 17 22 9 12 1021.6 1021.6 0.0
28/12:30pm 16.9 13.9 12.0 73 2.7 NE 19 24 10 13 1021.6 1021.6 0.0
28/12:00pm 17.3 14.6 13.0 76 2.4 NE 19 24 10 13 1021.8 1021.8 0.0
28/11:30am 17.0 13.9 12.1 73 2.7 NE 20 24 11 13 1021.9 1021.9 0.0
28/11:00am 16.3 13.3 12.1 76 2.3 ENE 19 24 10 13 1022.0 1022.0 0.0
28/10:30am 17.0 14.5 12.3 74 2.6 E 17 22 9 12 1022.2 1022.2 0.0
28/10:00am 16.6 13.9 11.7 73 2.7 E 17 26 9 14 1022.5 1022.5 0.0
28/09:30am 16.1 12.9 11.1 72 2.7 E 19 24 10 13 1022.6 1022.6 0.0
28/09:00am 16.5 14.1 11.4 72 2.7 E 15 20 8 11 1022.8 1022.8 0.0
28/08:30am 15.5 13.3 10.7 73 2.5 E 13 17 7 9 1022.8 1022.8 0.0
28/08:00am 15.1 13.3 10.9 76 2.2 SE 11 17 6 9 1022.6 1022.6 0.0
28/07:30am 13.7 11.3 9.9 78 2.0 SSE 13 19 7 10 1022.5 1022.5 0.0
28/07:00am 13.5 11.9 10.3 81 1.7 SSE 9 13 5 7 1022.4 1022.4 0.0
28/06:30am 12.4 9.9 9.8 84 1.3 SSE 13 15 7 8 1022.4 1022.4 0.0
28/06:00am 12.3 10.6 10.0 86 1.2 S 9 13 5 7 1022.4 1022.4 0.0
28/05:30am 12.5 10.5 10.0 85 1.3 SSE 11 15 6 8 1022.2 1022.2 0.0
28/05:00am 12.4 10.0 10.1 86 1.2 SE 13 17 7 9 1022.1 1022.1 0.0
28/04:30am 11.9 9.5 10.0 88 1.0 SE 13 19 7 10 1021.7 1021.7 0.0
28/04:00am 12.4 9.6 10.0 85 1.2 SE 15 20 8 11 1021.8 1021.8 0.0
28/03:30am 12.7 10.3 10.1 84 1.3 SE 13 19 7 10 1021.9 1021.9 0.0
28/03:00am 13.2 10.5 10.4 83 1.4 SE 15 24 8 13 1022.1 1022.1 0.0
28/02:30am 13.5 10.1 10.5 82 1.6 SE 19 28 10 15 1022.3 1022.3 0.0
28/02:17am 13.7 10.7 10.7 82 1.6 SSE 17 22 9 12 1022.3 1022.3 0.0
28/02:00am 13.8 10.3 10.8 82 1.6 ESE 20 30 11 16 1022.3 1022.3 0.0
28/01:30am 13.9 11.1 11.2 84 1.4 SE 17 24 9 13 1022.4 1022.4 0.0
28/01:00am 14.1 10.9 11.8 86 1.2 SE 20 30 11 16 1022.5 1022.5 0.0
28/12:30am 14.2 11.3 12.2 88 1.1 SE 19 24 10 13 1022.7 1022.7 0.0
28/12:00am 13.5 10.4 10.3 81 1.7 S 17 22 9 12 1022.9 1022.9 0.0
 
Date/Time
EDT
Temp
°C
App
Temp
°C
Dew
Point
Rel
Hum
%
Delta-T
°C
Wind Press
QNH
hPa
Press
MSL
hPa
Rain
since 9 am
mm
Dir
 
Spd
km/h
Gust
km/h
Spd
kts
Gust
kts
27/11:30pm 12.8 9.6 8.5 75 2.1 S 15 19 8 10 1022.8 1022.8 0.0
27/11:23pm 12.0 9.1 8.1 77 1.9 SSW 13 19 7 10 1022.7 1022.7 0.0
27/11:00pm 10.0 7.2 7.1 82 1.4 SSE 11 13 6 7 1022.6 1022.6 0.0
27/10:30pm 10.9 9.4 7.0 77 1.9 SSW 4 9 2 5 1022.5 1022.5 0.0
27/10:00pm 10.4 7.4 6.0 74 2.0 SW 11 15 6 8 1022.1 1022.1 0.0
27/09:30pm 13.4 11.2 6.3 62 3.4 SSW 7 13 4 7 1022.1 1022.1 0.0
27/09:00pm 15.0 12.4 6.3 56 4.2 SW 9 17 5 9 1021.9 1021.9 0.0
27/08:30pm 14.6 11.5 5.7 55 4.2 SW 11 15 6 8 1021.7 1021.7 0.0
27/08:00pm 17.3 13.8 5.6 46 5.6 SW 13 20 7 11 1021.7 1021.7 0.0
27/07:30pm 18.8 13.0 4.2 38 6.9 SW 24 32 13 17 1021.4 1021.4 0.0
27/07:00pm 19.9 14.5 4.4 36 7.4 SW 22 30 12 16 1021.4 1021.4 0.0
27/06:30pm 20.4 15.2 3.6 33 8.0 SSW 20 30 11 16 1021.3 1021.3 0.0
27/06:00pm 20.9 15.1 2.2 29 8.7 SSW 22 32 12 17 1021.2 1021.2 0.0
27/05:30pm 21.3 15.2 3.0 30 8.7 SSW 24 32 13 17 1021.3 1021.3 0.0
27/05:00pm 22.1 16.8 5.1 33 8.4 SSW 22 30 12 16 1021.4 1021.4 0.0
27/04:30pm 21.8 16.4 2.5 28 9.1 SSW 20 32 11 17 1021.5 1021.5 0.0
27/04:00pm 22.1 16.5 3.3 29 9.0 S 22 35 12 19 1021.5 1021.5 0.0
27/03:30pm 22.5 17.1 6.3 35 8.2 S 24 35 13 19 1021.8 1021.8 0.0
27/03:00pm 20.7 18.5 9.3 48 6.0 NE 11 15 6 8 1022.1 1022.1 0.0
27/02:30pm 20.8 16.9 8.8 46 6.3 NE 19 22 10 12 1022.2 1022.2 0.0
27/02:00pm 20.3 18.5 9.5 50 5.7 SW 9 15 5 8 1022.5 1022.5 0.0
27/01:30pm 20.2 16.4 3.9 34 7.8 SSW 13 22 7 12 1022.8 1022.8 0.0
27/01:00pm 19.8 17.1 7.5 45 6.3 SW 11 24 6 13 1022.9 1022.9 0.0
27/12:30pm 19.3 15.3 6.8 44 6.3 SW 17 22 9 12 1023.2 1023.2 0.0
27/12:00pm 18.6 12.7 5.8 43 6.3 SW 26 43 14 23 1023.4 1023.4 0.0
27/11:30am 18.7 14.5 8.4 51 5.3 SSW 20 43 11 23 1023.5 1023.5 0.0
27/11:00am 17.7 13.4 6.9 49 5.4 SSW 19 32 10 17 1023.8 1023.8 0.0
27/10:30am 16.4 11.6 7.3 55 4.5 S 22 32 12 17 1024.1 1024.1 0.0
27/10:00am 15.3 9.2 4.9 50 4.9 SSW 26 39 14 21 1024.3 1024.3 0.0
27/09:30am 14.6 9.8 5.7 55 4.2 SSW 20 32 11 17 1024.6 1024.6 0.0
27/09:00am 13.8 8.5 4.9 55 4.1 SSW 22 35 12 19 1024.6 1024.6 0.0
27/08:30am 12.8 7.6 5.5 61 3.4 SSW 22 43 12 23 1024.2 1024.2 0.0
27/08:00am 11.6 5.9 4.8 63 3.1 SSW 24 35 13 19 1024.1 1024.1 0.0
27/07:30am 11.0 6.7 5.3 68 2.6 SSW 17 24 9 13 1023.9 1023.9 0.0
27/07:00am 9.2 5.7 5.4 77 1.7 SW 13 20 7 11 1024.0 1024.0 0.0
27/06:30am 7.4 4.1 4.7 83 1.2 SW 11 13 6 7 1023.7 1023.7 0.0
27/06:00am 7.1 3.4 4.2 82 1.2 SSW 13 15 7 8 1023.4 1023.4 0.0
27/05:30am 5.6 1.3 3.3 85 1.0 SW 15 17 8 9 1023.3 1023.3 0.0
27/05:00am 6.5 3.0 3.3 80 1.3 SW 11 15 6 8 1023.1 1023.1 0.0
27/04:30am 6.5 3.0 3.7 82 1.2 SW 11 13 6 7 1023.0 1023.0 0.0
27/04:00am 7.2 2.7 4.0 80 1.4 SW 17 20 9 11 1023.0 1023.0 0.0
27/03:30am 7.4 2.9 4.2 80 1.4 SW 17 22 9 12 1022.7 1022.7 0.0
27/03:00am 9.0 5.7 4.4 73 2.0 SW 11 22 6 12 1022.7 1022.7 0.0
27/02:30am 7.2 1.8 4.3 82 1.3 SW 22 26 12 14 1022.3 1022.3 0.0
27/02:00am 7.0 3.7 4.5 84 1.1 WNW 11 13 6 7 1022.5 1022.5 0.0
27/01:30am 8.2 5.7 4.0 75 1.8 W 6 9 3 5 1022.6 1022.6 0.0
27/01:00am 9.4 7.7 4.2 70 2.3 W 2 7 1 4 1022.6 1022.6 0.0
27/12:30am 9.6 5.9 4.2 69 2.4 SSW 13 19 7 10 1022.5 1022.5 0.0
27/12:00am 8.8 5.5 4.8 76 1.8 SW 11 19 6 10 1022.5 1022.5 0.0
 
Date/Time
EDT
Temp
°C
App
Temp
°C
Dew
Point
Rel
Hum
%
Delta-T
°C
Wind Press
QNH
hPa
Press
MSL
hPa
Rain
since 9 am
mm
Dir
 
Spd
km/h
Gust
km/h
Spd
kts
Gust
kts
26/11:30pm 9.4 7.2 5.2 75 1.9 SW 6 9 3 5 1022.4 1022.4 0.0
26/11:00pm 9.5 6.3 4.9 73 2.1 SW 11 13 6 7 1022.5 1022.5 0.0
26/10:30pm 9.2 5.2 5.0 75 1.9 SSW 15 19 8 10 1022.3 1022.3 0.0
26/10:00pm 9.5 6.6 4.5 71 2.2 SSW 9 19 5 10 1022.2 1022.2 0.0
26/09:30pm 11.1 7.1 4.8 65 2.9 SW 15 26 8 14 1021.9 1021.9 0.0
26/09:00pm 11.5 7.4 4.3 61 3.2 SSW 15 32 8 17 1021.5 1021.5 0.0
26/08:30pm 11.8 7.3 4.1 59 3.5 SSW 17 33 9 18 1021.5 1021.5 0.0
26/08:00pm 12.3 7.2 4.0 57 3.7 SSW 20 30 11 16 1021.1 1021.1 0.0
26/07:30pm 13.2 8.2 4.4 55 4.0 SSW 20 35 11 19 1020.5 1020.5 0.0
26/07:00pm 13.7 7.2 4.8 55 4.1 SW 28 43 15 23 1020.1 1020.1 0.0
26/06:32pm 14.7 7.8 4.7 51 4.7 SSW 30 48 16 26 1019.6 1019.6 0.0
26/06:30pm 14.7 7.8 4.7 51 4.7 SSW 30 44 16 24 1019.6 1019.6 0.0
26/06:00pm 15.3 8.6 5.5 52 4.7 SW 30 41 16 22 1018.9 1018.9 0.0
26/05:30pm 16.4 9.3 5.4 48 5.3 SW 32 46 17 25 1018.7 1018.7 0.0
26/05:00pm 16.9 10.1 5.2 46 5.6 SSW 30 44 16 24 1018.5 1018.5 0.0
26/04:30pm 17.1 10.3 5.1 45 5.7 SSW 30 50 16 27 1018.3 1018.3 0.0
26/04:00pm 17.5 10.7 5.1 44 5.9 SSW 30 43 16 23 1018.0 1018.0 0.0
26/03:30pm 17.5 11.0 6.7 49 5.4 SSW 30 39 16 21 1017.9 1017.8 0.0
26/03:00pm 17.4 10.5 6.3 48 5.4 SW 32 50 17 27 1017.8 1017.7 0.0
26/02:49pm 18.4 12.6 7.8 50 5.4 SSW 28 46 15 25 1017.8 1017.7 0.0
26/02:30pm 16.8 11.3 6.0 49 5.3 SSW 24 35 13 19 1017.7 1017.6 0.0
26/02:00pm 16.4 10.9 6.0 50 5.0 SSW 24 41 13 22 1017.8 1017.7 0.0
26/01:48pm 17.3 11.2 6.8 50 5.2 SW 28 46 15 25 1017.8 1017.7 0.0
26/01:30pm 16.4 10.7 6.5 52 4.8 SSW 26 39 14 21 1017.7 1017.6 0.0
26/01:00pm 17.9 11.3 7.9 52 5.1 SW 32 44 17 24 1017.6 1017.5 0.0
26/12:30pm 16.9 10.8 6.4 50 5.2 SSW 28 39 15 21 1017.4 1017.3 0.0
26/12:00pm 17.1 10.6 6.3 49 5.3 SW 30 44 16 24 1017.4 1017.3 0.0
26/11:30am 15.7 9.7 7.0 56 4.3 SSW 28 43 15 23 1017.4 1017.3 0.0
26/11:00am 15.8 10.0 6.3 53 4.6 SW 26 41 14 22 1017.3 1017.2 0.0

Other Formats:

Comma delimited format used in spreadsheet applications
http://www.bom.gov.au/fwo/IDT60801/IDT60801.95957.axf

JavaScript Object Notation format (JSON) in row-major order
http://www.bom.gov.au/fwo/IDT60801/IDT60801.95957.json